Terminal Aerodrome Forecast
Issued by NWS Shreveport, LA

Home | Current Version | Previous Version | Text Only | Print | Product List | Glossary On
Versions: 1 2 3 4 5 6 7 8 9 10 11 12 13 14 15 16 17 18
000
FTUS44 KSHV 220201 AAA
TAFMLU
TAF AMD
KMLU 220201Z 2202/2224 15008G17KT P6SM FEW027
     FM220600 17012G20KT P6SM OVC030
     FM220900 VRB20G40KT 4SM TSRA OVC015CB
      TEMPO 2210/2212 VRB15G30KT 2SM TSRA BR OVC015CB
     FM221500 25012G18KT P6SM BKN080=

USA.gov is the U.S. government's official web portal to all federal, state and local government web resources and services.